Wolke Sonne

Wetter Ammerndorf

Gehe zu: Roßtal

Tageswerte vom Mittwoch, 16.03.2022

Optionen

Tag:
Erweitert:

Alle Werte vom Mittwoch, 16.03.2022

Einen Moment bitte, die Daten werden aufbereitet...

UhrzeitTemperaturBoden 10cmBoden 20cmFeuchteLuftdruckNiederschlagEvapotranspirationWindWindböenWindrichtungSolarstrahlungUV-IndexSonne?Uhrzeit
Diagramm IconDiagramm IconDiagramm IconDiagramm IconDiagramm IconDiagramm IconDiagramm IconDiagramm IconDiagramm IconDiagramm IconDiagramm IconDiagramm IconDiagramm Icon
00:004,5 °C 4,4 °C 4,4 °C 93 % 1025,4 hPa 0,0 mm - 0,0 km/h 4,7 km/h NNO 0,0 W/qm 0,0 nein 00:00
00:054,6 °C 4,4 °C 4,4 °C 93 % 1025,2 hPa 0,0 mm 0,0 mm 0,0 km/h 4,7 km/h NNO 0,0 W/qm 0,0 nein 00:05
00:104,6 °C 4,4 °C 4,4 °C 93 % 1025,2 hPa 0,0 mm 0,0 mm 0,0 km/h 4,7 km/h SW 0,0 W/qm 0,0 nein 00:10
00:154,6 °C 4,4 °C 4,4 °C 93 % 1025,2 hPa 0,0 mm - 0,0 km/h 1,4 km/h SW 0,0 W/qm 0,0 nein 00:15
00:204,6 °C 4,4 °C 4,4 °C 93 % 1025,2 hPa 0,0 mm - 0,0 km/h 6,5 km/h SW 0,0 W/qm 0,0 nein 00:20
00:254,6 °C 4,4 °C 4,4 °C 93 % 1025,2 hPa 0,0 mm - 0,0 km/h 6,5 km/h SW 0,0 W/qm 0,0 nein 00:25
00:304,7 °C 4,4 °C 4,4 °C 93 % 1025,3 hPa 0,0 mm - 0,0 km/h 4,7 km/h SW 0,0 W/qm 0,0 nein 00:30
00:354,6 °C 4,4 °C 4,4 °C 93 % 1025,4 hPa 0,0 mm - 0,0 km/h 4,7 km/h SW 0,0 W/qm 0,0 nein 00:35
00:404,6 °C 4,4 °C 4,4 °C 93 % 1025,4 hPa 0,0 mm - 0,0 km/h 4,7 km/h SW 0,0 W/qm 0,0 nein 00:40
00:454,7 °C 4,4 °C 4,4 °C 93 % 1025,5 hPa 0,0 mm - 0,0 km/h 1,4 km/h WSW 0,0 W/qm 0,0 nein 00:45
00:504,7 °C 4,4 °C 4,4 °C 93 % 1025,5 hPa 0,0 mm - 0,0 km/h 3,2 km/h WSW 0,0 W/qm 0,0 nein 00:50
00:554,7 °C 4,4 °C 4,4 °C 93 % 1025,6 hPa 0,0 mm - 0,0 km/h 3,2 km/h WSW 0,0 W/qm 0,0 nein 00:55
01:004,7 °C 4,4 °C 4,4 °C 93 % 1025,6 hPa 0,0 mm - 0,0 km/h 3,2 km/h S 0,0 W/qm 0,0 nein 01:00
01:054,7 °C 4,4 °C 4,4 °C 93 % 1025,7 hPa 0,0 mm 0,0 mm 1,4 km/h 4,7 km/h SSW 0,0 W/qm 0,0 nein 01:05
01:104,7 °C 4,4 °C 4,4 °C 93 % 1025,7 hPa 0,0 mm 0,0 mm 0,0 km/h 4,7 km/h SW 0,0 W/qm 0,0 nein 01:10
01:154,7 °C 4,4 °C 4,4 °C 93 % 1025,8 hPa 0,0 mm - 0,0 km/h 4,7 km/h SW 0,0 W/qm 0,0 nein 01:15
01:204,5 °C 4,4 °C 4,4 °C 93 % 1026,0 hPa 0,0 mm - 0,0 km/h 4,7 km/h ONO 0,0 W/qm 0,0 nein 01:20
01:254,6 °C 4,4 °C 4,4 °C 93 % 1026,0 hPa 0,0 mm - 0,0 km/h 3,2 km/h ONO 0,0 W/qm 0,0 nein 01:25
01:304,6 °C 4,4 °C 4,4 °C 93 % 1025,9 hPa 0,0 mm - 0,0 km/h 3,2 km/h ONO 0,0 W/qm 0,0 nein 01:30
01:354,5 °C 4,4 °C 4,4 °C 93 % 1025,9 hPa 0,0 mm - 0,0 km/h 3,2 km/h ONO 0,0 W/qm 0,0 nein 01:35
01:404,4 °C 4,4 °C 4,4 °C 93 % 1026,0 hPa 0,0 mm - 0,0 km/h 0,0 km/h ONO 0,0 W/qm 0,0 nein 01:40
01:454,4 °C 4,4 °C 4,4 °C 93 % 1026,0 hPa 0,0 mm - 0,0 km/h 0,0 km/h ONO 0,0 W/qm 0,0 nein 01:45
01:504,5 °C 4,4 °C 4,4 °C 93 % 1026,0 hPa 0,0 mm - 0,0 km/h 0,0 km/h ONO 0,0 W/qm 0,0 nein 01:50
01:554,5 °C 4,4 °C 4,4 °C 93 % 1026,0 hPa 0,0 mm - 0,0 km/h 0,0 km/h ONO 0,0 W/qm 0,0 nein 01:55
UhrzeitTemperaturBoden 10cmBoden 20cmFeuchteLuftdruckNiederschlagEvapotranspirationWindWindböenWindrichtungSolarstrahlungUV-IndexSonne?Uhrzeit
02:004,5 °C 4,4 °C 4,4 °C 94 % 1026,0 hPa 0,0 mm - 0,0 km/h 0,0 km/h ONO 0,0 W/qm 0,0 nein 02:00
02:054,4 °C 4,4 °C 4,4 °C 94 % 1026,0 hPa 0,0 mm 0,0 mm 0,0 km/h 0,0 km/h ONO 0,0 W/qm 0,0 nein 02:05
02:104,4 °C 4,4 °C 4,4 °C 94 % 1025,9 hPa 0,0 mm 0,0 mm 0,0 km/h 0,0 km/h ONO 0,0 W/qm 0,0 nein 02:10
02:154,4 °C 4,4 °C 4,4 °C 94 % 1025,9 hPa 0,0 mm - 0,0 km/h 0,0 km/h ONO 0,0 W/qm 0,0 nein 02:15
02:204,4 °C 4,4 °C 4,4 °C 94 % 1025,9 hPa 0,0 mm - 0,0 km/h 0,0 km/h ONO 0,0 W/qm 0,0 nein 02:20
02:254,3 °C 4,4 °C 4,4 °C 94 % 1026,0 hPa 0,0 mm - 0,0 km/h 0,0 km/h ONO 0,0 W/qm 0,0 nein 02:25
02:304,3 °C 4,4 °C 4,4 °C 94 % 1025,9 hPa 0,0 mm - 0,0 km/h 0,0 km/h ONO 0,0 W/qm 0,0 nein 02:30
02:354,2 °C 4,4 °C 4,4 °C 94 % 1025,9 hPa 0,0 mm - 0,0 km/h 0,0 km/h ONO 0,0 W/qm 0,0 nein 02:35
02:404,2 °C 4,4 °C 4,4 °C 94 % 1025,9 hPa 0,0 mm - 0,0 km/h 0,0 km/h ONO 0,0 W/qm 0,0 nein 02:40
02:454,2 °C 4,4 °C 4,4 °C 94 % 1025,9 hPa 0,0 mm - 0,0 km/h 0,0 km/h ONO 0,0 W/qm 0,0 nein 02:45
02:504,1 °C 4,4 °C 4,4 °C 94 % 1025,9 hPa 0,0 mm - 0,0 km/h 0,0 km/h ONO 0,0 W/qm 0,0 nein 02:50
02:554,1 °C 4,4 °C 4,4 °C 94 % 1025,9 hPa 0,0 mm - 0,0 km/h 0,0 km/h ONO 0,0 W/qm 0,0 nein 02:55
03:004,0 °C 4,4 °C 4,4 °C 94 % 1025,9 hPa 0,0 mm - 0,0 km/h 0,0 km/h ONO 0,0 W/qm 0,0 nein 03:00
03:053,8 °C 4,4 °C 4,4 °C 94 % 1026,1 hPa 0,0 mm 0,0 mm 0,0 km/h 0,0 km/h ONO 0,0 W/qm 0,0 nein 03:05
03:103,9 °C 4,4 °C 4,4 °C 94 % 1026,1 hPa 0,0 mm 0,0 mm 0,0 km/h 0,0 km/h ONO 0,0 W/qm 0,0 nein 03:10
03:153,9 °C 4,4 °C 4,4 °C 94 % 1026,2 hPa 0,0 mm - 0,0 km/h 0,0 km/h ONO 0,0 W/qm 0,0 nein 03:15
03:204,0 °C 4,4 °C 4,4 °C 94 % 1026,3 hPa 0,0 mm - 0,0 km/h 0,0 km/h ONO 0,0 W/qm 0,0 nein 03:20
03:253,8 °C 4,4 °C 4,4 °C 94 % 1026,3 hPa 0,0 mm - 0,0 km/h 0,0 km/h ONO 0,0 W/qm 0,0 nein 03:25
03:303,8 °C 4,4 °C 4,4 °C 94 % 1026,4 hPa 0,0 mm - 0,0 km/h 0,0 km/h ONO 0,0 W/qm 0,0 nein 03:30
03:353,8 °C 4,4 °C 4,4 °C 94 % 1026,4 hPa 0,0 mm - 0,0 km/h 0,0 km/h ONO 0,0 W/qm 0,0 nein 03:35
03:403,8 °C 4,4 °C 4,4 °C 94 % 1026,5 hPa 0,0 mm - 0,0 km/h 0,0 km/h ONO 0,0 W/qm 0,0 nein 03:40
03:453,9 °C 4,4 °C 4,4 °C 94 % 1026,5 hPa 0,0 mm - 0,0 km/h 0,0 km/h ONO 0,0 W/qm 0,0 nein 03:45
03:503,9 °C 4,4 °C 4,4 °C 94 % 1026,5 hPa 0,0 mm - 0,0 km/h 0,0 km/h ONO 0,0 W/qm 0,0 nein 03:50
03:553,9 °C 4,4 °C 4,4 °C 94 % 1026,6 hPa 0,0 mm - 0,0 km/h 0,0 km/h ONO 0,0 W/qm 0,0 nein 03:55
UhrzeitTemperaturBoden 10cmBoden 20cmFeuchteLuftdruckNiederschlagEvapotranspirationWindWindböenWindrichtungSolarstrahlungUV-IndexSonne?Uhrzeit
04:004,0 °C 4,4 °C 4,4 °C 94 % 1026,6 hPa 0,0 mm - 0,0 km/h 0,0 km/h ONO 0,0 W/qm 0,0 nein 04:00
04:054,0 °C 4,4 °C 4,4 °C 94 % 1026,6 hPa 0,0 mm 0,0 mm 0,0 km/h 0,0 km/h ONO 0,0 W/qm 0,0 nein 04:05
04:104,0 °C 4,4 °C 4,4 °C 94 % 1026,6 hPa 0,0 mm 0,0 mm 0,0 km/h 0,0 km/h ONO 0,0 W/qm 0,0 nein 04:10
04:153,9 °C 4,4 °C 4,4 °C 94 % 1026,6 hPa 0,0 mm - 0,0 km/h 0,0 km/h ONO 0,0 W/qm 0,0 nein 04:15
04:203,6 °C 4,4 °C 4,4 °C 94 % 1026,6 hPa 0,0 mm - 0,0 km/h 0,0 km/h ONO 0,0 W/qm 0,0 nein 04:20
04:253,4 °C 4,4 °C 4,4 °C 94 % 1026,8 hPa 0,0 mm - 0,0 km/h 4,7 km/h ONO 0,0 W/qm 0,0 nein 04:25
04:303,3 °C 4,4 °C 4,4 °C 94 % 1026,8 hPa 0,0 mm - 0,0 km/h 4,7 km/h ONO 0,0 W/qm 0,0 nein 04:30
04:353,2 °C 4,4 °C 4,4 °C 94 % 1026,8 hPa 0,0 mm - 0,0 km/h 4,7 km/h ONO 0,0 W/qm 0,0 nein 04:35
04:402,8 °C 4,4 °C 4,4 °C 94 % 1026,9 hPa 0,0 mm - 0,0 km/h 3,2 km/h ONO 0,0 W/qm 0,0 nein 04:40
04:452,8 °C 4,4 °C 4,4 °C 94 % 1027,0 hPa 0,0 mm - 0,0 km/h 1,4 km/h ONO 0,0 W/qm 0,0 nein 04:45
04:502,8 °C 4,4 °C 4,4 °C 94 % 1027,0 hPa 0,0 mm - 0,0 km/h 0,0 km/h ONO 0,0 W/qm 0,0 nein 04:50
04:553,0 °C 4,4 °C 4,4 °C 94 % 1026,9 hPa 0,0 mm - 0,0 km/h 0,0 km/h ONO 0,0 W/qm 0,0 nein 04:55
05:002,9 °C 4,4 °C 4,4 °C 95 % 1027,1 hPa 0,0 mm - 0,0 km/h 0,0 km/h ONO 0,0 W/qm 0,0 nein 05:00
05:053,0 °C 4,4 °C 4,4 °C 95 % 1027,1 hPa 0,0 mm 0,0 mm 0,0 km/h 0,0 km/h ONO 0,0 W/qm 0,0 nein 05:05
05:103,1 °C 4,4 °C 4,4 °C 94 % 1027,1 hPa 0,0 mm 0,0 mm 0,0 km/h 0,0 km/h ONO 0,0 W/qm 0,0 nein 05:10
05:153,1 °C 4,4 °C 4,4 °C 94 % 1027,2 hPa 0,0 mm - 0,0 km/h 0,0 km/h ONO 0,0 W/qm 0,0 nein 05:15
05:203,2 °C 4,4 °C 4,4 °C 94 % 1027,1 hPa 0,0 mm - 0,0 km/h 0,0 km/h ONO 0,0 W/qm 0,0 nein 05:20
05:253,1 °C 4,4 °C 4,4 °C 94 % 1027,2 hPa 0,0 mm - 0,0 km/h 0,0 km/h ONO 0,0 W/qm 0,0 nein 05:25
05:302,7 °C 4,4 °C 4,4 °C 94 % 1027,3 hPa 0,0 mm - 0,0 km/h 3,2 km/h ONO 0,0 W/qm 0,0 nein 05:30
05:352,6 °C 4,4 °C 4,4 °C 94 % 1027,3 hPa 0,0 mm - 0,0 km/h 3,2 km/h ONO 0,0 W/qm 0,0 nein 05:35
05:402,6 °C 4,4 °C 4,4 °C 95 % 1027,4 hPa 0,0 mm - 0,0 km/h 3,2 km/h ONO 0,0 W/qm 0,0 nein 05:40
05:452,6 °C 4,4 °C 4,4 °C 95 % 1027,5 hPa 0,0 mm - 0,0 km/h 0,0 km/h ONO 0,0 W/qm 0,0 nein 05:45
05:502,6 °C 4,4 °C 4,4 °C 95 % 1027,5 hPa 0,0 mm - 0,0 km/h 0,0 km/h ONO 0,0 W/qm 0,0 nein 05:50
05:552,6 °C 4,4 °C 4,4 °C 95 % 1027,5 hPa 0,0 mm - 0,0 km/h 4,7 km/h ONO 0,0 W/qm 0,0 nein 05:55
UhrzeitTemperaturBoden 10cmBoden 20cmFeuchteLuftdruckNiederschlagEvapotranspirationWindWindböenWindrichtungSolarstrahlungUV-IndexSonne?Uhrzeit
06:002,6 °C 4,4 °C 4,4 °C 95 % 1027,5 hPa 0,0 mm - 0,0 km/h 4,7 km/h ONO 0,0 W/qm 0,0 nein 06:00
06:052,5 °C 4,4 °C 4,4 °C 94 % 1027,5 hPa 0,0 mm 0,0 mm 0,0 km/h 4,7 km/h ONO 0,0 W/qm 0,0 nein 06:05
06:102,4 °C 4,4 °C 4,4 °C 94 % 1027,7 hPa 0,0 mm 0,0 mm 0,0 km/h 1,4 km/h ONO 0,0 W/qm 0,0 nein 06:10
06:152,3 °C 4,4 °C 4,4 °C 95 % 1027,7 hPa 0,0 mm - 0,0 km/h 0,0 km/h ONO 0,0 W/qm 0,0 nein 06:15
06:202,0 °C 4,4 °C 4,4 °C 94 % 1027,7 hPa 0,0 mm - 0,0 km/h 0,0 km/h ONO 5,0 W/qm 0,0 nein 06:20
06:251,8 °C 4,4 °C 4,4 °C 95 % 1027,8 hPa 0,0 mm - 0,0 km/h 0,0 km/h ONO 7,0 W/qm 0,0 nein 06:25
06:301,6 °C 3,9 °C 4,4 °C 94 % 1028,0 hPa 0,0 mm - 0,0 km/h 0,0 km/h ONO 7,0 W/qm 0,0 nein 06:30
06:351,5 °C 3,9 °C 4,4 °C 94 % 1028,1 hPa 0,0 mm - 0,0 km/h 0,0 km/h O 11,0 W/qm 0,0 nein 06:35
06:401,4 °C 3,9 °C 4,4 °C 94 % 1028,1 hPa 0,0 mm - 0,0 km/h 0,0 km/h O 14,0 W/qm 0,0 nein 06:40
06:451,2 °C 3,9 °C 4,4 °C 95 % 1028,3 hPa 0,0 mm - 0,0 km/h 0,0 km/h O 19,0 W/qm 0,0 nein 06:45
06:501,2 °C 3,9 °C 4,4 °C 94 % 1028,3 hPa 0,0 mm - 0,0 km/h 0,0 km/h O 21,0 W/qm 0,0 nein 06:50
06:551,3 °C 3,9 °C 4,4 °C 95 % 1028,3 hPa 0,0 mm - 0,0 km/h 0,0 km/h O 26,0 W/qm 0,0 nein 06:55
07:001,6 °C 3,9 °C 4,4 °C 95 % 1028,4 hPa 0,0 mm - 0,0 km/h 0,0 km/h O 30,0 W/qm 0,0 nein 07:00
07:051,8 °C 3,9 °C 4,4 °C 95 % 1028,4 hPa 0,0 mm 0,0 mm 0,0 km/h 0,0 km/h O 35,0 W/qm 0,0 nein 07:05
07:101,8 °C 3,9 °C 4,4 °C 95 % 1028,5 hPa 0,0 mm 0,0 mm 0,0 km/h 3,2 km/h O 40,0 W/qm 0,0 nein 07:10
07:151,7 °C 3,9 °C 4,4 °C 95 % 1028,5 hPa 0,0 mm - 0,0 km/h 3,2 km/h O 49,0 W/qm 0,0 nein 07:15
07:201,7 °C 3,9 °C 4,4 °C 95 % 1028,6 hPa 0,0 mm - 0,0 km/h 3,2 km/h O 53,0 W/qm 0,0 nein 07:20
07:251,6 °C 3,9 °C 4,4 °C 95 % 1028,7 hPa 0,0 mm - 0,0 km/h 3,2 km/h O 54,0 W/qm 0,0 nein 07:25
07:301,4 °C 3,9 °C 4,4 °C 95 % 1028,8 hPa 0,0 mm - 0,0 km/h 3,2 km/h O 54,0 W/qm 0,0 nein 07:30
07:351,5 °C 3,9 °C 4,4 °C 95 % 1028,8 hPa 0,0 mm - 0,0 km/h 3,2 km/h O 60,0 W/qm 0,0 nein 07:35
07:401,8 °C 3,9 °C 4,4 °C 95 % 1028,8 hPa 0,0 mm - 0,0 km/h 3,2 km/h O 70,0 W/qm 0,0 nein 07:40
07:452,1 °C 3,9 °C 4,4 °C 95 % 1028,8 hPa 0,0 mm - 0,0 km/h 0,0 km/h O 76,0 W/qm 0,0 nein 07:45
07:502,1 °C 3,9 °C 4,4 °C 95 % 1028,8 hPa 0,0 mm - 0,0 km/h 0,0 km/h O 81,0 W/qm 0,0 nein 07:50
07:552,0 °C 3,9 °C 4,4 °C 95 % 1028,9 hPa 0,0 mm - 0,0 km/h 0,0 km/h O 84,0 W/qm 0,0 nein 07:55
UhrzeitTemperaturBoden 10cmBoden 20cmFeuchteLuftdruckNiederschlagEvapotranspirationWindWindböenWindrichtungSolarstrahlungUV-IndexSonne?Uhrzeit
08:002,0 °C 3,9 °C 4,4 °C 95 % 1029,1 hPa 0,0 mm - 0,0 km/h 0,0 km/h O 88,0 W/qm 0,0 nein 08:00
08:052,1 °C 3,9 °C 4,4 °C 95 % 1028,9 hPa 0,0 mm 0,0 mm 0,0 km/h 0,0 km/h O 123,0 W/qm 0,0 nein 08:05
08:102,1 °C 3,9 °C 4,4 °C 95 % 1028,9 hPa 0,0 mm 0,0 mm 0,0 km/h 0,0 km/h O 135,0 W/qm 0,0 nein 08:10
08:152,2 °C 3,9 °C 4,4 °C 95 % 1028,9 hPa 0,0 mm - 0,0 km/h 0,0 km/h O 135,0 W/qm 0,0 nein 08:15
08:202,3 °C 3,9 °C 4,4 °C 95 % 1028,8 hPa 0,0 mm - 0,0 km/h 0,0 km/h O 151,0 W/qm 0,0 nein 08:20
08:252,5 °C 3,9 °C 4,4 °C 95 % 1028,9 hPa 0,0 mm - 0,0 km/h 0,0 km/h O 144,0 W/qm 0,0 nein 08:25
08:302,9 °C 3,9 °C 4,4 °C 95 % 1028,7 hPa 0,0 mm - 1,4 km/h 3,2 km/h O 225,0 W/qm 0,0 nein 08:30
08:353,2 °C 3,9 °C 4,4 °C 95 % 1028,7 hPa 0,0 mm - 0,0 km/h 3,2 km/h O 253,0 W/qm 0,5 ja 08:35
08:403,4 °C 3,9 °C 4,4 °C 95 % 1028,6 hPa 0,0 mm - 0,0 km/h 3,2 km/h O 250,0 W/qm 0,5 ja 08:40
08:453,8 °C 3,9 °C 4,4 °C 95 % 1028,7 hPa 0,0 mm - 0,0 km/h 3,2 km/h S 260,0 W/qm 0,5 ja 08:45
08:503,9 °C 3,9 °C 4,4 °C 95 % 1028,7 hPa 0,0 mm - 1,4 km/h 4,7 km/h S 255,0 W/qm 0,6 ja 08:50
08:554,2 °C 3,9 °C 4,4 °C 95 % 1028,6 hPa 0,0 mm - 1,4 km/h 4,7 km/h S 267,0 W/qm 0,6 ja 08:55
09:004,4 °C 3,9 °C 4,4 °C 95 % 1028,6 hPa 0,0 mm - 0,0 km/h 4,7 km/h S 290,0 W/qm 0,6 ja 09:00
09:054,7 °C 3,9 °C 4,4 °C 95 % 1028,5 hPa 0,0 mm 0,1 mm 0,0 km/h 3,2 km/h S 304,0 W/qm 0,7 ja 09:05
09:104,7 °C 3,9 °C 4,4 °C 95 % 1028,5 hPa 0,0 mm 0,1 mm 0,0 km/h 3,2 km/h S 309,0 W/qm 0,7 ja 09:10
09:155,1 °C 3,9 °C 4,4 °C 95 % 1028,5 hPa 0,0 mm - 0,0 km/h 3,2 km/h S 353,0 W/qm 0,8 ja 09:15
09:205,3 °C 3,9 °C 4,4 °C 95 % 1028,3 hPa 0,0 mm - 0,0 km/h 3,2 km/h S 348,0 W/qm 0,8 ja 09:20
09:255,7 °C 3,9 °C 4,4 °C 95 % 1028,3 hPa 0,0 mm - 1,4 km/h 4,7 km/h S 341,0 W/qm 0,8 ja 09:25
09:305,9 °C 3,9 °C 4,4 °C 95 % 1028,4 hPa 0,0 mm - 3,2 km/h 6,5 km/h S 292,0 W/qm 0,8 ja 09:30
09:356,2 °C 3,9 °C 4,4 °C 94 % 1028,3 hPa 0,0 mm - 3,2 km/h 9,7 km/h SSO 341,0 W/qm 0,9 ja 09:35
09:406,3 °C 3,9 °C 4,4 °C 93 % 1028,3 hPa 0,0 mm - 3,2 km/h 9,7 km/h O 338,0 W/qm 0,9 ja 09:40
09:456,4 °C 3,9 °C 4,4 °C 92 % 1028,3 hPa 0,0 mm - 3,2 km/h 9,7 km/h O 374,0 W/qm 1,0 ja 09:45
09:506,6 °C 3,9 °C 4,4 °C 91 % 1028,4 hPa 0,0 mm - 3,2 km/h 7,9 km/h SSO 390,0 W/qm 1,0 ja 09:50
09:556,8 °C 3,9 °C 4,4 °C 88 % 1028,4 hPa 0,0 mm - 1,4 km/h 11,2 km/h SSO 220,0 W/qm 0,9 nein 09:55
UhrzeitTemperaturBoden 10cmBoden 20cmFeuchteLuftdruckNiederschlagEvapotranspirationWindWindböenWindrichtungSolarstrahlungUV-IndexSonne?Uhrzeit
10:006,9 °C 3,9 °C 4,4 °C 86 % 1028,4 hPa 0,0 mm - 1,4 km/h 11,2 km/h SO 230,0 W/qm 1,0 nein 10:00
10:056,8 °C 3,9 °C 4,4 °C 86 % 1028,3 hPa 0,0 mm 0,2 mm 3,2 km/h 11,2 km/h ONO 207,0 W/qm 0,9 nein 10:05
10:106,7 °C 3,9 °C 4,4 °C 86 % 1028,3 hPa 0,0 mm 0,2 mm 3,2 km/h 11,2 km/h NO 255,0 W/qm 1,2 ja 10:10
10:156,9 °C 4,4 °C 4,4 °C 86 % 1028,2 hPa 0,0 mm - 1,4 km/h 11,2 km/h SSO 260,0 W/qm 1,0 ja 10:15
10:206,9 °C 4,4 °C 4,4 °C 85 % 1028,2 hPa 0,0 mm - 1,4 km/h 11,2 km/h O 236,0 W/qm 1,0 nein 10:20
10:257,1 °C 4,4 °C 4,4 °C 85 % 1028,2 hPa 0,0 mm - 3,2 km/h 9,7 km/h SSO 241,0 W/qm 1,0 ja 10:25
10:307,4 °C 4,4 °C 4,4 °C 86 % 1028,2 hPa 0,0 mm - 1,4 km/h 9,7 km/h OSO 369,0 W/qm 1,4 ja 10:30
10:357,8 °C 4,4 °C 4,4 °C 85 % 1028,0 hPa 0,0 mm - 1,4 km/h 9,7 km/h NO 555,0 W/qm 1,4 ja 10:35
10:408,5 °C 4,4 °C 4,4 °C 83 % 1028,0 hPa 0,0 mm - 3,2 km/h 7,9 km/h SSO 441,0 W/qm 1,3 ja 10:40
10:458,4 °C 4,4 °C 4,4 °C 79 % 1028,1 hPa 0,0 mm - 4,7 km/h 7,9 km/h S 540,0 W/qm 1,5 ja 10:45
10:508,5 °C 4,4 °C 4,4 °C 77 % 1028,0 hPa 0,0 mm - 4,7 km/h 13,0 km/h SO 561,0 W/qm 1,5 ja 10:50
10:558,9 °C 4,4 °C 4,4 °C 77 % 1027,8 hPa 0,0 mm - 4,7 km/h 13,0 km/h SSO 538,0 W/qm 1,5 ja 10:55
11:008,7 °C 4,4 °C 4,4 °C 78 % 1028,0 hPa 0,0 mm - 4,7 km/h 14,4 km/h S 536,0 W/qm 1,5 ja 11:00
11:058,8 °C 4,4 °C 4,4 °C 78 % 1027,8 hPa 0,0 mm 0,4 mm 4,7 km/h 14,4 km/h SSW 538,0 W/qm 1,6 ja 11:05
11:108,9 °C 4,4 °C 4,4 °C 76 % 1027,9 hPa 0,0 mm 0,4 mm 4,7 km/h 14,4 km/h ONO 550,0 W/qm 1,4 ja 11:10
11:159,1 °C 4,4 °C 4,4 °C 79 % 1027,9 hPa 0,0 mm - 3,2 km/h 14,4 km/h SSW 650,0 W/qm 1,6 ja 11:15
11:209,3 °C 4,4 °C 4,4 °C 77 % 1027,8 hPa 0,0 mm - 3,2 km/h 14,4 km/h ONO 617,0 W/qm 1,6 ja 11:20
11:259,4 °C 4,4 °C 4,4 °C 79 % 1027,8 hPa 0,0 mm - 3,2 km/h 14,4 km/h S 357,0 W/qm 1,4 ja 11:25
11:309,6 °C 4,4 °C 4,4 °C 74 % 1027,7 hPa 0,0 mm - 3,2 km/h 9,7 km/h S 603,0 W/qm 1,7 ja 11:30
11:359,8 °C 4,4 °C 4,4 °C 74 % 1027,7 hPa 0,0 mm - 6,5 km/h 14,4 km/h SSO 603,0 W/qm 1,8 ja 11:35
11:409,9 °C 4,4 °C 4,4 °C 74 % 1027,6 hPa 0,0 mm - 7,9 km/h 17,6 km/h SSO 589,0 W/qm 1,8 ja 11:40
11:459,6 °C 4,4 °C 4,4 °C 73 % 1027,5 hPa 0,0 mm - 6,5 km/h 19,4 km/h SSO 624,0 W/qm 1,7 ja 11:45
11:509,7 °C 4,4 °C 4,4 °C 73 % 1027,4 hPa 0,0 mm - 4,7 km/h 19,4 km/h SSO 559,0 W/qm 1,8 ja 11:50
11:5510,1 °C 4,4 °C 4,4 °C 72 % 1027,2 hPa 0,0 mm - 6,5 km/h 13,0 km/h O 540,0 W/qm 1,5 ja 11:55
UhrzeitTemperaturBoden 10cmBoden 20cmFeuchteLuftdruckNiederschlagEvapotranspirationWindWindböenWindrichtungSolarstrahlungUV-IndexSonne?Uhrzeit
12:009,9 °C 4,4 °C 4,4 °C 72 % 1027,3 hPa 0,0 mm - 4,7 km/h 16,2 km/h SSO 457,0 W/qm 1,6 ja 12:00
12:0510,2 °C 4,4 °C 4,4 °C 73 % 1027,2 hPa 0,0 mm 0,7 mm 6,5 km/h 16,2 km/h ONO 601,0 W/qm 1,4 ja 12:05
12:1010,2 °C 4,4 °C 4,4 °C 73 % 1027,1 hPa 0,0 mm 0,7 mm 6,5 km/h 22,7 km/h SSO 629,0 W/qm 1,7 ja 12:10
12:1510,4 °C 4,4 °C 4,4 °C 71 % 1027,0 hPa 0,0 mm - 4,7 km/h 22,7 km/h SW 422,0 W/qm 1,4 ja 12:15
12:2010,4 °C 4,4 °C 4,4 °C 71 % 1027,0 hPa 0,0 mm - 4,7 km/h 22,7 km/h SSO 485,0 W/qm 1,4 ja 12:20
12:2510,5 °C 5,0 °C 4,4 °C 70 % 1027,0 hPa 0,0 mm - 4,7 km/h 16,2 km/h SSO 357,0 W/qm 1,4 ja 12:25
12:3010,4 °C 5,0 °C 4,4 °C 71 % 1026,8 hPa 0,0 mm - 4,7 km/h 16,2 km/h S 315,0 W/qm 1,4 ja 12:30
12:3510,6 °C 5,0 °C 4,4 °C 71 % 1026,8 hPa 0,0 mm - 3,2 km/h 16,2 km/h NNO 577,0 W/qm 1,8 ja 12:35
12:4010,8 °C 5,0 °C 4,4 °C 68 % 1026,7 hPa 0,0 mm - 4,7 km/h 11,2 km/h O 490,0 W/qm 1,8 ja 12:40
12:4510,9 °C 5,0 °C 4,4 °C 68 % 1026,6 hPa 0,0 mm - 6,5 km/h 16,2 km/h SSO 622,0 W/qm 1,9 ja 12:45
12:5011,2 °C 5,0 °C 4,4 °C 67 % 1026,7 hPa 0,0 mm - 7,9 km/h 16,2 km/h S 622,0 W/qm 1,9 ja 12:50
12:5511,0 °C 5,0 °C 4,4 °C 66 % 1026,7 hPa 0,0 mm - 6,5 km/h 16,2 km/h SO 629,0 W/qm 1,7 ja 12:55
13:0011,1 °C 5,0 °C 4,4 °C 67 % 1026,6 hPa 0,0 mm - 6,5 km/h 16,2 km/h S 302,0 W/qm 1,4 ja 13:00
13:0511,1 °C 5,0 °C 4,4 °C 70 % 1026,5 hPa 0,0 mm 0,9 mm 6,5 km/h 16,2 km/h NW 485,0 W/qm 1,6 ja 13:05
13:1011,2 °C 5,0 °C 4,4 °C 69 % 1026,3 hPa 0,0 mm 0,9 mm 4,7 km/h 16,2 km/h O 548,0 W/qm 1,5 ja 13:10
13:1511,4 °C 5,0 °C 4,4 °C 71 % 1026,1 hPa 0,0 mm - 6,5 km/h 16,2 km/h WSW 573,0 W/qm 1,7 ja 13:15
13:2011,6 °C 5,0 °C 4,4 °C 64 % 1026,1 hPa 0,0 mm - 6,5 km/h 16,2 km/h O 552,0 W/qm 1,7 ja 13:20
13:2511,6 °C 5,0 °C 4,4 °C 64 % 1026,1 hPa 0,0 mm - 6,5 km/h 14,4 km/h SSO 675,0 W/qm 1,9 ja 13:25
13:3011,9 °C 5,0 °C 4,4 °C 64 % 1026,2 hPa 0,0 mm - 9,7 km/h 19,4 km/h SSW 675,0 W/qm 1,9 ja 13:30
13:3512,1 °C 5,0 °C 4,4 °C 62 % 1026,0 hPa 0,0 mm - 7,9 km/h 19,4 km/h SSW 696,0 W/qm 1,9 ja 13:35
13:4012,2 °C 5,0 °C 4,4 °C 63 % 1025,8 hPa 0,0 mm - 6,5 km/h 20,9 km/h O 621,0 W/qm 1,8 ja 13:40
13:4512,5 °C 5,6 °C 4,4 °C 64 % 1025,9 hPa 0,0 mm - 4,7 km/h 20,9 km/h ONO 571,0 W/qm 1,4 ja 13:45
13:5012,1 °C 5,6 °C 4,4 °C 63 % 1025,8 hPa 0,0 mm - 4,7 km/h 20,9 km/h S 543,0 W/qm 1,7 ja 13:50
13:5512,3 °C 5,6 °C 4,4 °C 63 % 1025,8 hPa 0,0 mm - 4,7 km/h 16,2 km/h SSO 522,0 W/qm 1,5 ja 13:55
UhrzeitTemperaturBoden 10cmBoden 20cmFeuchteLuftdruckNiederschlagEvapotranspirationWindWindböenWindrichtungSolarstrahlungUV-IndexSonne?Uhrzeit
14:0012,1 °C 5,6 °C 4,4 °C 62 % 1025,8 hPa 0,0 mm - 4,7 km/h 13,0 km/h ONO 533,0 W/qm 1,5 ja 14:00
14:0511,9 °C 5,6 °C 4,4 °C 64 % 1025,6 hPa 0,0 mm 1,2 mm 6,5 km/h 20,9 km/h SSW 594,0 W/qm 1,5 ja 14:05
14:1011,8 °C 5,6 °C 4,4 °C 64 % 1025,7 hPa 0,0 mm 1,2 mm 6,5 km/h 20,9 km/h ONO 199,0 W/qm 1,2 nein 14:10
14:1511,8 °C 5,6 °C 4,4 °C 65 % 1025,7 hPa 0,0 mm - 6,5 km/h 20,9 km/h S 540,0 W/qm 1,5 ja 14:15
14:2012,0 °C 5,6 °C 4,4 °C 65 % 1025,5 hPa 0,0 mm - 4,7 km/h 16,2 km/h WSW 545,0 W/qm 1,5 ja 14:20
14:2512,5 °C 5,6 °C 4,4 °C 59 % 1025,6 hPa 0,0 mm - 6,5 km/h 16,2 km/h OSO 592,0 W/qm 1,5 ja 14:25
14:3012,5 °C 5,6 °C 4,4 °C 60 % 1025,6 hPa 0,0 mm - 7,9 km/h 16,2 km/h SSO 482,0 W/qm 1,4 ja 14:30
14:3512,3 °C 5,6 °C 4,4 °C 59 % 1025,5 hPa 0,0 mm - 6,5 km/h 16,2 km/h S 527,0 W/qm 1,4 ja 14:35
14:4012,6 °C 5,6 °C 4,4 °C 59 % 1025,5 hPa 0,0 mm - 7,9 km/h 17,6 km/h S 563,0 W/qm 1,4 ja 14:40
14:4512,4 °C 5,6 °C 4,4 °C 58 % 1025,6 hPa 0,0 mm - 7,9 km/h 17,6 km/h SO 541,0 W/qm 1,4 ja 14:45
14:5012,3 °C 5,6 °C 4,4 °C 60 % 1025,6 hPa 0,0 mm - 7,9 km/h 19,4 km/h O 541,0 W/qm 1,3 ja 14:50
14:5512,4 °C 5,6 °C 4,4 °C 59 % 1025,6 hPa 0,0 mm - 6,5 km/h 19,4 km/h SSO 531,0 W/qm 1,3 ja 14:55
15:0012,6 °C 6,1 °C 5,0 °C 59 % 1025,3 hPa 0,0 mm - 7,9 km/h 19,4 km/h SSO 469,0 W/qm 1,2 ja 15:00
15:0512,6 °C 6,1 °C 5,0 °C 57 % 1025,4 hPa 0,0 mm 1,5 mm 6,5 km/h 16,2 km/h SSO 322,0 W/qm 1,0 ja 15:05
15:1012,3 °C 6,1 °C 5,0 °C 59 % 1025,4 hPa 0,0 mm 1,5 mm 4,7 km/h 16,2 km/h OSO 260,0 W/qm 0,9 ja 15:10
15:1512,1 °C 6,1 °C 5,0 °C 59 % 1025,4 hPa 0,0 mm - 6,5 km/h 14,4 km/h SSO 267,0 W/qm 0,8 ja 15:15
15:2011,8 °C 6,1 °C 5,0 °C 59 % 1025,4 hPa 0,0 mm - 7,9 km/h 14,4 km/h SSO 167,0 W/qm 0,7 nein 15:20
15:2511,7 °C 6,1 °C 5,0 °C 61 % 1025,4 hPa 0,0 mm - 7,9 km/h 16,2 km/h S 251,0 W/qm 0,7 ja 15:25
15:3012,1 °C 6,1 °C 5,0 °C 61 % 1025,4 hPa 0,0 mm - 6,5 km/h 16,2 km/h SSO 529,0 W/qm 1,0 ja 15:30
15:3512,2 °C 6,1 °C 5,0 °C 60 % 1025,3 hPa 0,0 mm - 4,7 km/h 16,2 km/h S 346,0 W/qm 0,9 ja 15:35
15:4012,3 °C 6,1 °C 5,0 °C 59 % 1025,2 hPa 0,0 mm - 6,5 km/h 16,2 km/h SSO 306,0 W/qm 0,8 ja 15:40
15:4512,3 °C 6,1 °C 5,0 °C 59 % 1025,2 hPa 0,0 mm - 4,7 km/h 20,9 km/h SSO 197,0 W/qm 0,7 nein 15:45
15:5012,1 °C 6,1 °C 5,0 °C 59 % 1025,0 hPa 0,0 mm - 4,7 km/h 20,9 km/h SSO 227,0 W/qm 0,6 nein 15:50
15:5511,9 °C 6,1 °C 5,0 °C 59 % 1025,0 hPa 0,0 mm - 6,5 km/h 20,9 km/h S 190,0 W/qm 0,6 nein 15:55
UhrzeitTemperaturBoden 10cmBoden 20cmFeuchteLuftdruckNiederschlagEvapotranspirationWindWindböenWindrichtungSolarstrahlungUV-IndexSonne?Uhrzeit
16:0011,8 °C 6,1 °C 5,0 °C 60 % 1024,8 hPa 0,0 mm - 4,7 km/h 16,2 km/h SW 128,0 W/qm 0,5 nein 16:00
16:0511,6 °C 6,1 °C 5,0 °C 61 % 1024,9 hPa 0,0 mm 1,6 mm 3,2 km/h 16,2 km/h NNO 116,0 W/qm 0,0 nein 16:05
16:1011,3 °C 6,1 °C 5,0 °C 62 % 1024,9 hPa 0,0 mm 1,6 mm 3,2 km/h 16,2 km/h NO 116,0 W/qm 0,0 nein 16:10
16:1511,4 °C 6,1 °C 5,0 °C 62 % 1024,8 hPa 0,0 mm - 1,4 km/h 11,2 km/h S 116,0 W/qm 0,0 nein 16:15
16:2011,4 °C 6,1 °C 5,0 °C 62 % 1024,8 hPa 0,0 mm - 1,4 km/h 11,2 km/h SO 123,0 W/qm 0,0 nein 16:20
16:2511,4 °C 6,1 °C 5,0 °C 63 % 1024,6 hPa 0,0 mm - 1,4 km/h 9,7 km/h WSW 127,0 W/qm 0,0 nein 16:25
16:3011,3 °C 6,1 °C 5,0 °C 63 % 1024,5 hPa 0,0 mm - 3,2 km/h 7,9 km/h S 128,0 W/qm 0,0 nein 16:30
16:3511,4 °C 6,1 °C 5,0 °C 62 % 1024,6 hPa 0,0 mm - 3,2 km/h 7,9 km/h S 118,0 W/qm 0,0 nein 16:35
16:4011,4 °C 6,1 °C 5,0 °C 62 % 1024,8 hPa 0,0 mm - 3,2 km/h 9,7 km/h SSO 107,0 W/qm 0,0 nein 16:40
16:4511,3 °C 6,1 °C 5,0 °C 62 % 1024,8 hPa 0,0 mm - 4,7 km/h 9,7 km/h S 100,0 W/qm 0,0 nein 16:45
16:5011,3 °C 6,1 °C 5,0 °C 62 % 1024,8 hPa 0,0 mm - 3,2 km/h 9,7 km/h S 91,0 W/qm 0,0 nein 16:50
16:5511,3 °C 6,1 °C 5,0 °C 62 % 1024,8 hPa 0,0 mm - 1,4 km/h 9,7 km/h SO 84,0 W/qm 0,0 nein 16:55
17:0011,2 °C 6,1 °C 5,0 °C 63 % 1024,8 hPa 0,0 mm - 3,2 km/h 7,9 km/h SSO 77,0 W/qm 0,0 nein 17:00
17:0511,1 °C 6,1 °C 5,0 °C 63 % 1024,8 hPa 0,0 mm 1,7 mm 4,7 km/h 7,9 km/h SSO 70,0 W/qm 0,0 nein 17:05
17:1011,0 °C 6,1 °C 5,0 °C 63 % 1024,8 hPa 0,0 mm 1,7 mm 3,2 km/h 7,9 km/h S 63,0 W/qm 0,0 nein 17:10
17:1510,9 °C 6,1 °C 5,0 °C 63 % 1024,8 hPa 0,0 mm - 3,2 km/h 9,7 km/h SSO 58,0 W/qm 0,0 nein 17:15
17:2010,8 °C 6,1 °C 5,0 °C 64 % 1024,8 hPa 0,0 mm - 1,4 km/h 9,7 km/h SSO 53,0 W/qm 0,0 nein 17:20
17:2510,7 °C 6,1 °C 5,0 °C 65 % 1024,8 hPa 0,0 mm - 1,4 km/h 9,7 km/h S 47,0 W/qm 0,0 nein 17:25
17:3010,5 °C 6,1 °C 5,0 °C 66 % 1024,8 hPa 0,0 mm - 0,0 km/h 7,9 km/h S 44,0 W/qm 0,0 nein 17:30
17:3510,4 °C 6,1 °C 5,0 °C 66 % 1024,7 hPa 0,0 mm - 0,0 km/h 4,7 km/h SSO 40,0 W/qm 0,0 nein 17:35
17:4010,1 °C 6,1 °C 5,0 °C 69 % 1024,8 hPa 0,0 mm - 0,0 km/h 4,7 km/h SSO 33,0 W/qm 0,0 nein 17:40
17:459,8 °C 6,1 °C 5,0 °C 70 % 1024,8 hPa 0,0 mm - 0,0 km/h 4,7 km/h SSO 28,0 W/qm 0,0 nein 17:45
17:509,6 °C 6,1 °C 5,0 °C 72 % 1024,8 hPa 0,0 mm - 0,0 km/h 4,7 km/h SSO 25,0 W/qm 0,0 nein 17:50
17:559,1 °C 6,1 °C 5,0 °C 74 % 1025,0 hPa 0,0 mm - 0,0 km/h 1,4 km/h SSO 19,0 W/qm 0,0 nein 17:55
UhrzeitTemperaturBoden 10cmBoden 20cmFeuchteLuftdruckNiederschlagEvapotranspirationWindWindböenWindrichtungSolarstrahlungUV-IndexSonne?Uhrzeit
18:008,8 °C 6,1 °C 5,0 °C 75 % 1025,0 hPa 0,0 mm - 0,0 km/h 0,0 km/h SSO 16,0 W/qm 0,0 nein 18:00
18:058,7 °C 6,1 °C 5,0 °C 75 % 1025,3 hPa 0,0 mm 1,7 mm 0,0 km/h 0,0 km/h SSO 11,0 W/qm 0,0 nein 18:05
18:108,6 °C 6,1 °C 5,0 °C 75 % 1025,4 hPa 0,0 mm 1,7 mm 0,0 km/h 0,0 km/h SSO 9,0 W/qm 0,0 nein 18:10
18:158,1 °C 6,1 °C 5,0 °C 77 % 1025,6 hPa 0,0 mm - 0,0 km/h 0,0 km/h SSO 5,0 W/qm 0,0 nein 18:15
18:207,7 °C 6,1 °C 5,0 °C 78 % 1025,6 hPa 0,0 mm - 0,0 km/h 0,0 km/h SSO 0,0 W/qm 0,0 nein 18:20
18:257,6 °C 6,1 °C 5,0 °C 78 % 1025,6 hPa 0,0 mm - 0,0 km/h 0,0 km/h SSO 0,0 W/qm 0,0 nein 18:25
18:307,1 °C 6,1 °C 5,0 °C 80 % 1025,6 hPa 0,0 mm - 0,0 km/h 0,0 km/h SSO 0,0 W/qm 0,0 nein 18:30
18:356,9 °C 6,1 °C 5,0 °C 80 % 1025,6 hPa 0,0 mm - 0,0 km/h 0,0 km/h SSO 0,0 W/qm 0,0 nein 18:35
18:406,8 °C 6,1 °C 5,0 °C 80 % 1025,8 hPa 0,0 mm - 0,0 km/h 0,0 km/h SSO 0,0 W/qm 0,0 nein 18:40
18:456,5 °C 6,1 °C 5,0 °C 81 % 1025,7 hPa 0,0 mm - 0,0 km/h 0,0 km/h SSO 0,0 W/qm 0,0 nein 18:45
18:506,2 °C 6,1 °C 5,0 °C 82 % 1025,5 hPa 0,0 mm - 0,0 km/h 0,0 km/h SSO 0,0 W/qm 0,0 nein 18:50
18:556,2 °C 6,1 °C 5,0 °C 82 % 1025,8 hPa 0,0 mm - 0,0 km/h 0,0 km/h SSO 0,0 W/qm 0,0 nein 18:55
19:005,9 °C 6,1 °C 5,0 °C 83 % 1025,9 hPa 0,0 mm - 0,0 km/h 0,0 km/h SSO 0,0 W/qm 0,0 nein 19:00
19:055,9 °C 6,1 °C 5,0 °C 84 % 1025,9 hPa 0,0 mm 1,7 mm 0,0 km/h 0,0 km/h SSO 0,0 W/qm 0,0 nein 19:05
19:105,8 °C 6,1 °C 5,0 °C 84 % 1025,9 hPa 0,0 mm 1,7 mm 0,0 km/h 0,0 km/h SSO 0,0 W/qm 0,0 nein 19:10
19:155,7 °C 6,1 °C 5,0 °C 84 % 1025,8 hPa 0,0 mm - 0,0 km/h 0,0 km/h SSO 0,0 W/qm 0,0 nein 19:15
19:205,6 °C 6,1 °C 5,0 °C 85 % 1025,7 hPa 0,0 mm - 0,0 km/h 0,0 km/h SSO 0,0 W/qm 0,0 nein 19:20
19:255,6 °C 6,1 °C 5,0 °C 84 % 1025,8 hPa 0,0 mm - 0,0 km/h 0,0 km/h SSO 0,0 W/qm 0,0 nein 19:25
19:305,3 °C 6,1 °C 5,0 °C 85 % 1026,0 hPa 0,0 mm - 0,0 km/h 0,0 km/h SSO 0,0 W/qm 0,0 nein 19:30
19:355,2 °C 6,1 °C 5,0 °C 85 % 1026,1 hPa 0,0 mm - 0,0 km/h 0,0 km/h SSO 0,0 W/qm 0,0 nein 19:35
19:405,1 °C 6,1 °C 5,0 °C 84 % 1026,2 hPa 0,0 mm - 0,0 km/h 0,0 km/h SSO 0,0 W/qm 0,0 nein 19:40
19:454,9 °C 6,1 °C 5,0 °C 85 % 1026,2 hPa 0,0 mm - 0,0 km/h 0,0 km/h SSO 0,0 W/qm 0,0 nein 19:45
19:504,7 °C 6,1 °C 5,6 °C 85 % 1026,2 hPa 0,0 mm - 0,0 km/h 0,0 km/h SSO 0,0 W/qm 0,0 nein 19:50
19:554,6 °C 6,1 °C 5,6 °C 86 % 1026,1 hPa 0,0 mm - 0,0 km/h 0,0 km/h SSO 0,0 W/qm 0,0 nein 19:55
UhrzeitTemperaturBoden 10cmBoden 20cmFeuchteLuftdruckNiederschlagEvapotranspirationWindWindböenWindrichtungSolarstrahlungUV-IndexSonne?Uhrzeit
20:004,4 °C 6,1 °C 5,6 °C 86 % 1026,1 hPa 0,0 mm - 0,0 km/h 0,0 km/h SSO 0,0 W/qm 0,0 nein 20:00
20:054,3 °C 6,1 °C 5,6 °C 86 % 1026,3 hPa 0,0 mm 1,7 mm 0,0 km/h 0,0 km/h SSO 0,0 W/qm 0,0 nein 20:05
20:104,3 °C 6,1 °C 5,6 °C 87 % 1026,3 hPa 0,0 mm 1,7 mm 0,0 km/h 0,0 km/h SSO 0,0 W/qm 0,0 nein 20:10
20:154,3 °C 6,1 °C 5,6 °C 88 % 1026,2 hPa 0,0 mm - 0,0 km/h 0,0 km/h SSO 0,0 W/qm 0,0 nein 20:15
20:204,0 °C 5,6 °C 5,6 °C 87 % 1026,4 hPa 0,0 mm - 0,0 km/h 0,0 km/h SSO 0,0 W/qm 0,0 nein 20:20
20:254,0 °C 5,6 °C 5,6 °C 87 % 1026,5 hPa 0,0 mm - 0,0 km/h 0,0 km/h SSO 0,0 W/qm 0,0 nein 20:25
20:303,9 °C 5,6 °C 5,6 °C 88 % 1026,5 hPa 0,0 mm - 0,0 km/h 0,0 km/h SSO 0,0 W/qm 0,0 nein 20:30
20:353,9 °C 5,6 °C 5,6 °C 88 % 1026,7 hPa 0,0 mm - 0,0 km/h 0,0 km/h SSO 0,0 W/qm 0,0 nein 20:35
20:403,8 °C 5,6 °C 5,6 °C 88 % 1026,5 hPa 0,0 mm - 0,0 km/h 0,0 km/h SSO 0,0 W/qm 0,0 nein 20:40
20:453,7 °C 5,6 °C 5,6 °C 88 % 1026,2 hPa 0,0 mm - 0,0 km/h 0,0 km/h SSO 0,0 W/qm 0,0 nein 20:45
20:503,7 °C 5,6 °C 5,6 °C 88 % 1026,1 hPa 0,0 mm - 0,0 km/h 0,0 km/h SSO 0,0 W/qm 0,0 nein 20:50
20:553,6 °C 5,6 °C 5,6 °C 88 % 1026,1 hPa 0,0 mm - 0,0 km/h 0,0 km/h WSW 0,0 W/qm 0,0 nein 20:55
21:003,6 °C 5,6 °C 5,6 °C 89 % 1026,1 hPa 0,0 mm - 1,4 km/h 4,7 km/h WSW 0,0 W/qm 0,0 nein 21:00
21:053,5 °C 5,6 °C 5,6 °C 89 % 1026,0 hPa 0,0 mm 1,7 mm 1,4 km/h 4,7 km/h WSW 0,0 W/qm 0,0 nein 21:05
21:103,7 °C 5,6 °C 5,6 °C 90 % 1026,1 hPa 0,0 mm 1,7 mm 0,0 km/h 4,7 km/h WSW 0,0 W/qm 0,0 nein 21:10
21:153,6 °C 5,6 °C 5,6 °C 89 % 1026,2 hPa 0,0 mm - 0,0 km/h 3,2 km/h WSW 0,0 W/qm 0,0 nein 21:15
21:203,3 °C 5,6 °C 5,6 °C 89 % 1026,3 hPa 0,0 mm - 0,0 km/h 0,0 km/h WSW 0,0 W/qm 0,0 nein 21:20
21:253,3 °C 5,6 °C 5,6 °C 90 % 1026,3 hPa 0,0 mm - 0,0 km/h 0,0 km/h WSW 0,0 W/qm 0,0 nein 21:25
21:303,3 °C 5,6 °C 5,6 °C 90 % 1026,4 hPa 0,0 mm - 0,0 km/h 0,0 km/h WSW 0,0 W/qm 0,0 nein 21:30
21:353,2 °C 5,6 °C 5,6 °C 90 % 1026,4 hPa 0,0 mm - 0,0 km/h 0,0 km/h WSW 0,0 W/qm 0,0 nein 21:35
21:403,1 °C 5,6 °C 5,6 °C 90 % 1026,3 hPa 0,0 mm - 0,0 km/h 0,0 km/h WSW 0,0 W/qm 0,0 nein 21:40
21:453,1 °C 5,6 °C 5,6 °C 90 % 1026,4 hPa 0,0 mm - 0,0 km/h 1,4 km/h WSW 0,0 W/qm 0,0 nein 21:45
21:503,1 °C 5,6 °C 5,6 °C 90 % 1026,5 hPa 0,0 mm - 0,0 km/h 1,4 km/h WSW 0,0 W/qm 0,0 nein 21:50
21:553,0 °C 5,6 °C 5,6 °C 90 % 1026,5 hPa 0,0 mm - 0,0 km/h 1,4 km/h WSW 0,0 W/qm 0,0 nein 21:55
UhrzeitTemperaturBoden 10cmBoden 20cmFeuchteLuftdruckNiederschlagEvapotranspirationWindWindböenWindrichtungSolarstrahlungUV-IndexSonne?Uhrzeit
22:003,1 °C 5,6 °C 5,0 °C 90 % 1026,4 hPa 0,0 mm - 0,0 km/h 1,4 km/h WSW 0,0 W/qm 0,0 nein 22:00
22:053,1 °C 5,6 °C 5,0 °C 91 % 1026,5 hPa 0,0 mm 1,7 mm 0,0 km/h 1,4 km/h WSW 0,0 W/qm 0,0 nein 22:05
22:103,1 °C 5,6 °C 5,0 °C 91 % 1026,5 hPa 0,0 mm 1,7 mm 0,0 km/h 0,0 km/h WSW 0,0 W/qm 0,0 nein 22:10
22:152,9 °C 5,6 °C 5,0 °C 90 % 1026,5 hPa 0,0 mm - 0,0 km/h 0,0 km/h WSW 0,0 W/qm 0,0 nein 22:15
22:202,9 °C 5,6 °C 5,0 °C 91 % 1026,5 hPa 0,0 mm - 0,0 km/h 0,0 km/h WSW 0,0 W/qm 0,0 nein 22:20
22:252,8 °C 5,6 °C 5,0 °C 91 % 1026,6 hPa 0,0 mm - 0,0 km/h 0,0 km/h WSW 0,0 W/qm 0,0 nein 22:25
22:302,9 °C 5,6 °C 5,0 °C 91 % 1026,4 hPa 0,0 mm - 0,0 km/h 0,0 km/h WSW 0,0 W/qm 0,0 nein 22:30
22:352,9 °C 5,6 °C 5,0 °C 91 % 1026,4 hPa 0,0 mm - 0,0 km/h 0,0 km/h WSW 0,0 W/qm 0,0 nein 22:35
22:402,8 °C 5,6 °C 5,0 °C 91 % 1026,5 hPa 0,0 mm - 0,0 km/h 0,0 km/h WSW 0,0 W/qm 0,0 nein 22:40
22:452,9 °C 5,6 °C 5,0 °C 91 % 1026,4 hPa 0,0 mm - 0,0 km/h 0,0 km/h WSW 0,0 W/qm 0,0 nein 22:45
22:502,9 °C 5,6 °C 5,0 °C 91 % 1026,5 hPa 0,0 mm - 0,0 km/h 0,0 km/h WSW 0,0 W/qm 0,0 nein 22:50
22:552,9 °C 5,6 °C 5,0 °C 91 % 1026,5 hPa 0,0 mm - 0,0 km/h 3,2 km/h WSW 0,0 W/qm 0,0 nein 22:55
23:002,9 °C 5,6 °C 5,0 °C 91 % 1026,5 hPa 0,0 mm - 0,0 km/h 3,2 km/h WSW 0,0 W/qm 0,0 nein 23:00
23:053,1 °C 5,6 °C 5,0 °C 91 % 1026,5 hPa 0,0 mm 1,7 mm 0,0 km/h 3,2 km/h WSW 0,0 W/qm 0,0 nein 23:05
23:103,4 °C 5,6 °C 5,0 °C 92 % 1026,4 hPa 0,0 mm 1,7 mm 0,0 km/h 3,2 km/h SSO 0,0 W/qm 0,0 nein 23:10
23:153,8 °C 5,6 °C 5,0 °C 91 % 1026,3 hPa 0,0 mm - 1,4 km/h 4,7 km/h SW 0,0 W/qm 0,0 nein 23:15
23:203,9 °C 5,6 °C 5,0 °C 91 % 1026,3 hPa 0,0 mm - 1,4 km/h 4,7 km/h S 0,0 W/qm 0,0 nein 23:20
23:254,1 °C 5,6 °C 5,0 °C 90 % 1026,3 hPa 0,0 mm - 1,4 km/h 4,7 km/h SO 0,0 W/qm 0,0 nein 23:25
23:303,9 °C 5,0 °C 5,0 °C 89 % 1026,3 hPa 0,0 mm - 1,4 km/h 4,7 km/h SW 0,0 W/qm 0,0 nein 23:30
23:354,1 °C 5,0 °C 5,0 °C 90 % 1026,3 hPa 0,0 mm - 1,4 km/h 9,7 km/h S 0,0 W/qm 0,0 nein 23:35
23:404,0 °C 5,0 °C 5,0 °C 89 % 1026,2 hPa 0,0 mm - 1,4 km/h 9,7 km/h S 0,0 W/qm 0,0 nein 23:40
23:453,9 °C 5,0 °C 5,0 °C 89 % 1026,2 hPa 0,0 mm - 1,4 km/h 4,7 km/h S 0,0 W/qm 0,0 nein 23:45
23:504,0 °C 5,0 °C 5,0 °C 89 % 1026,2 hPa 0,0 mm - 1,4 km/h 4,7 km/h S 0,0 W/qm 0,0 nein 23:50
23:553,7 °C 5,0 °C 5,0 °C 89 % 1026,4 hPa 0,0 mm - 1,4 km/h 4,7 km/h S 0,0 W/qm 0,0 nein 23:55
Gesamt: 6,2 °C 5,0 °C 4,7 °C 84 % 1026,6 hPa 0,0 mm 37,4 mm 1,7 km/h 5,9 km/h 0 148,7 W/qm 0,4 ja

Insgesamt 288 Zeilen mal 13 Spalten = 3744 Werte werden angezeigt.

www.wetter-rosstal.de   •   www.wetter-franken.de   •   www.lightningmaps.org   •   Start   •   Kontakt / Datenschutz   •   PC-Kümmerer